createdAt,value
2022-09-03T00:00:48.000Z,283.21
2022-09-03T00:02:14.000Z,283.27
2022-09-03T00:04:20.000Z,283.21
2022-09-03T00:05:50.000Z,283.21
2022-09-03T00:07:56.000Z,283.21
2022-09-03T00:09:23.000Z,283.21
2022-09-03T00:11:29.000Z,283.09
2022-09-03T00:12:56.000Z,283.21
2022-09-03T00:15:02.000Z,283.15
2022-09-03T00:16:28.000Z,283.21
2022-09-03T00:18:34.000Z,283.15
2022-09-03T00:20:01.000Z,283.02
2022-09-03T00:22:07.000Z,283.15
2022-09-03T00:24:58.000Z,283.09
2022-09-03T00:26:25.000Z,283.09
2022-09-03T00:28:31.000Z,282.96
2022-09-03T00:29:57.000Z,282.9
2022-09-03T00:32:03.000Z,282.9
2022-09-03T00:33:30.000Z,282.9
2022-09-03T00:35:36.000Z,282.96
2022-09-03T00:37:02.000Z,282.96
2022-09-03T00:39:10.000Z,282.96
2022-09-03T00:40:36.000Z,282.96
2022-09-03T00:42:43.000Z,282.77
2022-09-03T00:44:09.000Z,282.84
2022-09-03T00:46:16.000Z,282.71
2022-09-03T00:47:43.000Z,282.71
2022-09-03T00:49:49.000Z,282.71
2022-09-03T00:51:15.000Z,282.65
2022-09-03T00:53:21.000Z,282.71
2022-09-03T00:54:48.000Z,282.65
2022-09-03T00:56:54.000Z,282.46
2022-09-03T00:58:20.000Z,282.46
2022-09-03T01:00:26.000Z,282.4
2022-09-03T01:03:18.000Z,282.4
2022-09-03T01:04:44.000Z,282.46
2022-09-03T01:06:50.000Z,282.27
2022-09-03T01:08:17.000Z,282.21
2022-09-03T01:10:23.000Z,282.27
2022-09-03T01:11:49.000Z,282.27
2022-09-03T01:13:55.000Z,282.34
2022-09-03T01:15:22.000Z,282.34
2022-09-03T01:17:28.000Z,282.21
2022-09-03T01:18:55.000Z,282.27
2022-09-03T01:21:01.000Z,282.34
2022-09-03T01:22:27.000Z,282.34
2022-09-03T01:24:33.000Z,282.4
2022-09-03T01:26:00.000Z,282.34
2022-09-03T01:28:06.000Z,282.21
2022-09-03T01:29:32.000Z,282.21
2022-09-03T01:31:43.000Z,282.27
2022-09-03T01:33:10.000Z,282.27
2022-09-03T01:35:16.000Z,282.21
2022-09-03T01:36:42.000Z,282.21
2022-09-03T01:38:48.000Z,282.15
2022-09-03T01:41:40.000Z,282.09
2022-09-03T01:43:06.000Z,282.02
2022-09-03T01:45:12.000Z,282.09
2022-09-03T01:46:39.000Z,282.15
2022-09-03T01:48:45.000Z,281.96
2022-09-03T01:50:12.000Z,282.02
2022-09-03T01:52:18.000Z,282.09
2022-09-03T01:53:44.000Z,281.96
2022-09-03T01:55:51.000Z,282.02
2022-09-03T01:57:17.000Z,282.02
2022-09-03T01:59:41.000Z,281.96
2022-09-03T02:01:07.000Z,281.96
2022-09-03T02:03:13.000Z,282.02
2022-09-03T02:04:40.000Z,282.09
2022-09-03T02:06:46.000Z,282.09
2022-09-03T02:08:13.000Z,282.02
2022-09-03T02:10:19.000Z,281.84
2022-09-03T02:11:46.000Z,281.84
2022-09-03T02:13:52.000Z,281.9
2022-09-03T02:15:18.000Z,281.84
2022-09-03T02:17:24.000Z,281.9
2022-09-03T02:20:16.000Z,281.84
2022-09-03T02:21:42.000Z,281.84
2022-09-03T02:23:48.000Z,281.9
2022-09-03T02:25:15.000Z,281.77
2022-09-03T02:27:21.000Z,281.77
2022-09-03T02:28:47.000Z,281.9
2022-09-03T02:30:54.000Z,281.71
2022-09-03T02:32:20.000Z,281.77
2022-09-03T02:34:26.000Z,281.77
2022-09-03T02:35:53.000Z,281.65
2022-09-03T02:37:59.000Z,281.65
2022-09-03T02:39:25.000Z,281.65
2022-09-03T02:41:31.000Z,281.59
2022-09-03T02:42:58.000Z,281.59
2022-09-03T02:45:04.000Z,281.46
2022-09-03T02:46:31.000Z,281.52
2022-09-03T02:48:37.000Z,281.52
2022-09-03T02:50:03.000Z,281.59
2022-09-03T02:52:09.000Z,281.59
2022-09-03T02:53:36.000Z,281.52
2022-09-03T02:55:42.000Z,281.52
2022-09-03T02:58:33.000Z,281.52
2022-09-03T03:00:00.000Z,281.46
2022-09-03T03:02:07.000Z,281.46
2022-09-03T03:03:33.000Z,281.46
2022-09-03T03:05:39.000Z,281.52
2022-09-03T03:07:06.000Z,281.52
2022-09-03T03:09:12.000Z,281.4
2022-09-03T03:10:38.000Z,281.4
2022-09-03T03:12:44.000Z,281.4
2022-09-03T03:14:11.000Z,281.4
2022-09-03T03:16:17.000Z,281.34
2022-09-03T03:17:44.000Z,281.34
2022-09-03T03:19:50.000Z,281.34
2022-09-03T03:21:16.000Z,281.34
2022-09-03T03:23:22.000Z,281.34
2022-09-03T03:24:49.000Z,281.34
2022-09-03T03:26:55.000Z,281.27
2022-09-03T03:28:21.000Z,281.21
2022-09-03T03:30:28.000Z,281.21
2022-09-03T03:31:54.000Z,281.15
2022-09-03T03:34:00.000Z,281.21
2022-09-03T03:36:52.000Z,281.09
2022-09-03T03:38:18.000Z,281.09
2022-09-03T03:40:24.000Z,281.15
2022-09-03T03:41:51.000Z,281.15
2022-09-03T03:43:57.000Z,281.15
2022-09-03T03:45:23.000Z,281.09
2022-09-03T03:47:29.000Z,281.02
2022-09-03T03:48:56.000Z,281.02
2022-09-03T03:51:02.000Z,281.09
2022-09-03T03:52:28.000Z,281.09
2022-09-03T03:54:35.000Z,281.15
2022-09-03T03:56:01.000Z,281.09
2022-09-03T03:58:07.000Z,280.96
2022-09-03T03:59:34.000Z,280.96
2022-09-03T04:01:40.000Z,280.96
2022-09-03T04:03:06.000Z,280.9
2022-09-03T04:05:12.000Z,280.96
2022-09-03T04:06:39.000Z,280.84
2022-09-03T04:08:45.000Z,280.77
2022-09-03T04:10:14.000Z,280.71
2022-09-03T04:12:20.000Z,280.77
2022-09-03T04:15:11.000Z,280.77
2022-09-03T04:16:37.000Z,280.71
2022-09-03T04:18:43.000Z,280.84
2022-09-03T04:20:10.000Z,280.71
2022-09-03T04:22:16.000Z,280.77
2022-09-03T04:23:43.000Z,280.77
2022-09-03T04:25:49.000Z,280.84
2022-09-03T04:27:15.000Z,280.84
2022-09-03T04:29:21.000Z,280.84
2022-09-03T04:30:48.000Z,280.65
2022-09-03T04:32:54.000Z,280.77
2022-09-03T04:34:21.000Z,280.71
2022-09-03T04:36:27.000Z,280.77
2022-09-03T04:37:53.000Z,280.65
2022-09-03T04:39:59.000Z,280.59
2022-09-03T04:41:26.000Z,280.52
2022-09-03T04:43:32.000Z,280.59
2022-09-03T04:44:59.000Z,280.59
2022-09-03T04:47:05.000Z,280.4
2022-09-03T04:48:31.000Z,280.52
2022-09-03T04:50:41.000Z,280.59
2022-09-03T04:53:32.000Z,280.59
2022-09-03T04:54:59.000Z,280.52
2022-09-03T04:57:05.000Z,280.52
2022-09-03T04:58:32.000Z,280.52
2022-09-03T05:00:38.000Z,280.65
2022-09-03T05:02:04.000Z,280.71
2022-09-03T05:04:11.000Z,280.59
2022-09-03T05:05:37.000Z,280.65
2022-09-03T05:07:43.000Z,280.59
2022-09-03T05:09:10.000Z,280.59
2022-09-03T05:11:16.000Z,280.65
2022-09-03T05:12:42.000Z,280.71
2022-09-03T05:14:48.000Z,280.84
2022-09-03T05:16:15.000Z,280.9
2022-09-03T05:18:21.000Z,280.96
2022-09-03T05:19:48.000Z,281.02
2022-09-03T05:21:54.000Z,281.02
2022-09-03T05:23:21.000Z,281.09
2022-09-03T05:25:27.000Z,281.09
2022-09-03T05:26:53.000Z,281.09
2022-09-03T05:28:59.000Z,281.21
2022-09-03T05:31:50.000Z,281.34
2022-09-03T05:33:17.000Z,281.4
2022-09-03T05:35:23.000Z,281.46
2022-09-03T05:36:54.000Z,281.52
2022-09-03T05:39:00.000Z,281.65
2022-09-03T05:40:27.000Z,281.71
2022-09-03T05:42:33.000Z,281.84
2022-09-03T05:43:59.000Z,281.96
2022-09-03T05:46:06.000Z,282.09
2022-09-03T05:47:32.000Z,282.21
2022-09-03T05:49:38.000Z,282.27
2022-09-03T05:51:05.000Z,282.34
2022-09-03T05:53:11.000Z,282.34
2022-09-03T05:54:37.000Z,282.4
2022-09-03T05:56:43.000Z,282.46
2022-09-03T05:58:10.000Z,282.59
2022-09-03T06:00:16.000Z,282.65
2022-09-03T06:01:43.000Z,282.71
2022-09-03T06:03:57.000Z,282.71
2022-09-03T06:05:24.000Z,282.77
2022-09-03T06:07:30.000Z,282.9
2022-09-03T06:10:21.000Z,283.02
2022-09-03T06:11:52.000Z,283.09
2022-09-03T06:14:01.000Z,283.21
2022-09-03T06:15:27.000Z,283.27
2022-09-03T06:17:34.000Z,283.4
2022-09-03T06:19:00.000Z,283.46
2022-09-03T06:21:06.000Z,283.52
2022-09-03T06:22:33.000Z,283.59
2022-09-03T06:24:39.000Z,283.65
2022-09-03T06:26:05.000Z,283.71
2022-09-03T06:28:12.000Z,283.77
2022-09-03T06:29:38.000Z,283.9
2022-09-03T06:31:44.000Z,284.02
2022-09-03T06:33:11.000Z,284.09
2022-09-03T06:35:17.000Z,284.15
2022-09-03T06:36:43.000Z,284.21
2022-09-03T06:38:49.000Z,284.27
2022-09-03T06:40:16.000Z,284.34
2022-09-03T06:42:22.000Z,284.4
2022-09-03T06:43:49.000Z,284.52
2022-09-03T06:45:55.000Z,284.52
2022-09-03T06:48:46.000Z,284.59
2022-09-03T06:50:12.000Z,284.65
2022-09-03T06:52:18.000Z,284.65
2022-09-03T06:53:45.000Z,284.71
2022-09-03T06:55:51.000Z,284.84
2022-09-03T06:57:17.000Z,284.9
2022-09-03T06:59:24.000Z,284.96
2022-09-03T07:00:50.000Z,284.96
2022-09-03T07:02:56.000Z,285.02
2022-09-03T07:04:23.000Z,285.15
2022-09-03T07:06:29.000Z,285.21
2022-09-03T07:07:56.000Z,285.21
2022-09-03T07:10:02.000Z,285.27
2022-09-03T07:11:28.000Z,285.27
2022-09-03T07:13:34.000Z,285.34
2022-09-03T07:15:01.000Z,285.4
2022-09-03T07:17:07.000Z,285.65
2022-09-03T07:18:33.000Z,285.84
2022-09-03T07:20:39.000Z,285.9
2022-09-03T07:22:06.000Z,286.02
2022-09-03T07:24:12.000Z,286.21
2022-09-03T07:27:03.000Z,286.52
2022-09-03T07:28:30.000Z,286.59
2022-09-03T07:30:36.000Z,286.77
2022-09-03T07:32:02.000Z,286.9
2022-09-03T07:34:08.000Z,287.02
2022-09-03T07:35:35.000Z,287.15
2022-09-03T07:37:41.000Z,287.4
2022-09-03T07:39:08.000Z,287.52
2022-09-03T07:41:14.000Z,287.65
2022-09-03T07:42:53.000Z,287.59
2022-09-03T07:44:59.000Z,287.65
2022-09-03T07:46:26.000Z,287.65
2022-09-03T07:48:32.000Z,287.65
2022-09-03T07:50:02.000Z,287.71
2022-09-03T07:52:08.000Z,287.84
2022-09-03T07:53:38.000Z,287.9
2022-09-03T07:55:44.000Z,287.9
2022-09-03T07:57:11.000Z,287.9
2022-09-03T07:59:17.000Z,287.96
2022-09-03T08:00:43.000Z,288.02
2022-09-03T08:02:49.000Z,288.02
2022-09-03T08:05:45.000Z,288.09
2022-09-03T08:07:11.000Z,288.15
2022-09-03T08:09:17.000Z,288.15
2022-09-03T08:10:44.000Z,288.21
2022-09-03T08:12:50.000Z,288.27
2022-09-03T08:14:16.000Z,288.27
2022-09-03T08:16:23.000Z,288.27
2022-09-03T08:17:49.000Z,288.27
2022-09-03T08:19:55.000Z,288.27
2022-09-03T08:21:22.000Z,288.34
2022-09-03T08:23:28.000Z,288.4
2022-09-03T08:24:55.000Z,288.4
2022-09-03T08:27:01.000Z,288.4
2022-09-03T08:28:27.000Z,288.46
2022-09-03T08:30:33.000Z,288.46
2022-09-03T08:32:00.000Z,288.52
2022-09-03T08:34:09.000Z,288.59
2022-09-03T08:35:35.000Z,288.59
2022-09-03T08:37:42.000Z,288.65
2022-09-03T08:39:08.000Z,288.65
2022-09-03T08:41:15.000Z,288.71
2022-09-03T08:44:06.000Z,288.84
2022-09-03T08:45:32.000Z,288.9
2022-09-03T08:47:39.000Z,288.96
2022-09-03T08:49:05.000Z,289.02
2022-09-03T08:51:11.000Z,289.15
2022-09-03T08:52:38.000Z,289.27
2022-09-03T08:54:44.000Z,289.46
2022-09-03T08:56:10.000Z,289.52
2022-09-03T08:58:17.000Z,289.71
2022-09-03T08:59:43.000Z,289.71
2022-09-03T09:01:49.000Z,289.9
2022-09-03T09:03:19.000Z,289.96
2022-09-03T09:05:25.000Z,290.09
2022-09-03T09:06:51.000Z,290.09
2022-09-03T09:08:57.000Z,290.15
2022-09-03T09:10:24.000Z,290.21
2022-09-03T09:12:30.000Z,290.21
2022-09-03T09:14:08.000Z,290.34
2022-09-03T09:16:14.000Z,290.4
2022-09-03T09:17:41.000Z,290.46
2022-09-03T09:19:47.000Z,290.59
2022-09-03T09:22:38.000Z,290.71
2022-09-03T09:24:05.000Z,290.77
2022-09-03T09:26:11.000Z,290.84
2022-09-03T09:27:38.000Z,290.84
2022-09-03T09:29:44.000Z,290.96
2022-09-03T09:31:11.000Z,291.02
2022-09-03T09:33:17.000Z,291.15
2022-09-03T09:34:44.000Z,291.15
2022-09-03T09:36:56.000Z,291.09
2022-09-03T09:38:22.000Z,291.15
2022-09-03T09:40:29.000Z,291.21
2022-09-03T09:41:55.000Z,291.21
2022-09-03T09:44:01.000Z,291.27
2022-09-03T09:45:28.000Z,291.27
2022-09-03T09:47:34.000Z,291.27
2022-09-03T09:49:00.000Z,291.34
2022-09-03T09:51:06.000Z,291.34
2022-09-03T09:52:33.000Z,291.4
2022-09-03T09:54:39.000Z,291.46
2022-09-03T09:56:06.000Z,291.46
2022-09-03T09:58:12.000Z,291.52
2022-09-03T10:01:03.000Z,291.59
2022-09-03T10:02:30.000Z,291.59
2022-09-03T10:04:36.000Z,291.59
2022-09-03T10:06:03.000Z,291.65
2022-09-03T10:08:09.000Z,291.65
2022-09-03T10:09:35.000Z,291.71
2022-09-03T10:11:41.000Z,291.84
2022-09-03T10:13:08.000Z,291.84
2022-09-03T10:15:14.000Z,291.9
2022-09-03T10:16:40.000Z,291.96
2022-09-03T10:18:46.000Z,291.96
2022-09-03T10:20:13.000Z,291.96
2022-09-03T10:22:19.000Z,292.02
2022-09-03T10:23:46.000Z,292.09
2022-09-03T10:25:52.000Z,292.15
2022-09-03T10:27:18.000Z,292.21
2022-09-03T10:29:24.000Z,292.27
2022-09-03T10:30:51.000Z,292.34
2022-09-03T10:32:57.000Z,292.4
2022-09-03T10:34:24.000Z,292.46
2022-09-03T10:36:30.000Z,292.46
2022-09-03T10:39:21.000Z,292.46
2022-09-03T10:40:48.000Z,292.52
2022-09-03T10:42:54.000Z,292.59
2022-09-03T10:44:20.000Z,292.65
2022-09-03T10:46:26.000Z,292.77
2022-09-03T10:47:53.000Z,292.84
2022-09-03T10:49:59.000Z,292.84
2022-09-03T10:51:26.000Z,292.96
2022-09-03T10:53:32.000Z,293.09
2022-09-03T10:54:58.000Z,293.15
2022-09-03T10:57:05.000Z,293.09
2022-09-03T10:58:31.000Z,293.15
2022-09-03T11:00:38.000Z,293.15
2022-09-03T11:02:05.000Z,293.15
2022-09-03T11:04:11.000Z,293.02
2022-09-03T11:05:37.000Z,293.02
2022-09-03T11:07:44.000Z,292.9
2022-09-03T11:09:10.000Z,292.9
2022-09-03T11:11:17.000Z,292.84
2022-09-03T11:12:43.000Z,292.77
2022-09-03T11:14:49.000Z,292.71
2022-09-03T11:17:40.000Z,292.65
2022-09-03T11:19:07.000Z,292.52
2022-09-03T11:21:13.000Z,292.4
2022-09-03T11:22:39.000Z,292.34
2022-09-03T11:24:45.000Z,292.21
2022-09-03T11:26:12.000Z,292.21
2022-09-03T11:28:18.000Z,292.09
2022-09-03T11:29:45.000Z,292.09
2022-09-03T11:31:51.000Z,292.09
2022-09-03T11:33:17.000Z,292.09
2022-09-03T11:35:23.000Z,292.09
2022-09-03T11:36:50.000Z,292.09
2022-09-03T11:38:56.000Z,292.09
2022-09-03T11:40:23.000Z,292.15
2022-09-03T11:42:29.000Z,292.15
2022-09-03T11:43:55.000Z,292.21
2022-09-03T11:46:08.000Z,292.21
2022-09-03T11:47:35.000Z,292.27
2022-09-03T11:49:41.000Z,292.34
2022-09-03T11:51:07.000Z,292.4
2022-09-03T11:53:13.000Z,292.52
2022-09-03T11:56:05.000Z,292.65
2022-09-03T11:57:31.000Z,292.65
2022-09-03T11:59:37.000Z,292.71
2022-09-03T12:01:04.000Z,292.71
2022-09-03T12:03:10.000Z,292.77
2022-09-03T12:04:37.000Z,292.84
2022-09-03T12:06:43.000Z,292.96
2022-09-03T12:08:09.000Z,293.02
2022-09-03T12:10:16.000Z,292.96
2022-09-03T12:11:42.000Z,293.02
2022-09-03T12:13:48.000Z,293.02
2022-09-03T12:15:15.000Z,293.09
2022-09-03T12:17:21.000Z,293.09
2022-09-03T12:18:47.000Z,293.02
2022-09-03T12:20:53.000Z,292.96
2022-09-03T12:22:20.000Z,293.02
2022-09-03T12:24:26.000Z,293.09
2022-09-03T12:25:52.000Z,293.09
2022-09-03T12:27:59.000Z,293.15
2022-09-03T12:29:25.000Z,293.15
2022-09-03T12:31:35.000Z,293.27
2022-09-03T12:34:32.000Z,293.46
2022-09-03T12:35:58.000Z,293.46
2022-09-03T12:38:05.000Z,293.52
2022-09-03T12:39:35.000Z,293.65
2022-09-03T12:42:11.000Z,293.77
2022-09-03T12:43:38.000Z,293.84
2022-09-03T12:45:54.000Z,293.71
2022-09-03T12:47:36.000Z,293.77
2022-09-03T12:49:42.000Z,293.84
2022-09-03T12:53:45.000Z,293.84
2022-09-03T12:55:11.000Z,293.9
2022-09-03T12:57:17.000Z,293.84
2022-09-03T12:58:44.000Z,293.77
2022-09-03T13:00:50.000Z,293.65
2022-09-03T13:02:17.000Z,293.65
2022-09-03T13:04:23.000Z,293.65
2022-09-03T13:05:50.000Z,293.59
2022-09-03T13:07:56.000Z,293.59
2022-09-03T13:09:22.000Z,293.59
2022-09-03T13:11:28.000Z,293.59
2022-09-03T13:14:20.000Z,293.77
2022-09-03T13:15:46.000Z,293.84
2022-09-03T13:17:52.000Z,293.96
2022-09-03T13:19:19.000Z,294.09
2022-09-03T13:21:25.000Z,294.21
2022-09-03T13:22:51.000Z,294.4
2022-09-03T13:24:58.000Z,294.46
2022-09-03T13:26:24.000Z,294.4
2022-09-03T13:28:30.000Z,294.34
2022-09-03T13:29:57.000Z,294.27
2022-09-03T13:32:03.000Z,294.21
2022-09-03T13:33:30.000Z,294.21
2022-09-03T13:35:37.000Z,294.21
2022-09-03T13:37:03.000Z,294.15
2022-09-03T13:39:09.000Z,294.21
2022-09-03T13:40:36.000Z,294.21
2022-09-03T13:42:42.000Z,294.15
2022-09-03T13:44:08.000Z,294.21
2022-09-03T13:46:14.000Z,294.15
2022-09-03T13:47:41.000Z,294.27
2022-09-03T13:49:48.000Z,294.15
2022-09-03T13:52:41.000Z,294.15
2022-09-03T13:54:07.000Z,294.09
2022-09-03T13:56:13.000Z,294.02
2022-09-03T13:57:40.000Z,294.15
2022-09-03T13:59:46.000Z,294.21
2022-09-03T14:01:12.000Z,294.34
2022-09-03T14:03:19.000Z,294.4
2022-09-03T14:04:45.000Z,294.59
2022-09-03T14:06:51.000Z,294.9
2022-09-03T14:08:18.000Z,294.84
2022-09-03T14:10:24.000Z,295.02
2022-09-03T14:11:51.000Z,295.21
2022-09-03T14:13:57.000Z,295.46
2022-09-03T14:15:23.000Z,295.52
2022-09-03T14:17:29.000Z,295.4
2022-09-03T14:18:56.000Z,295.52
2022-09-03T14:21:02.000Z,295.52
2022-09-03T14:22:29.000Z,295.59
2022-09-03T14:24:35.000Z,295.46
2022-09-03T14:26:02.000Z,295.46
2022-09-03T14:28:08.000Z,295.34
2022-09-03T14:30:59.000Z,295.21
2022-09-03T14:32:26.000Z,295.21
2022-09-03T14:34:32.000Z,295.15
2022-09-03T14:35:58.000Z,295.09
2022-09-03T14:38:04.000Z,295.09
2022-09-03T14:39:31.000Z,295.09
2022-09-03T14:41:38.000Z,295.09
2022-09-03T14:43:04.000Z,295.09
2022-09-03T14:45:11.000Z,295.09
2022-09-03T14:46:37.000Z,295.09
2022-09-03T14:48:43.000Z,295.02
2022-09-03T14:50:10.000Z,294.9
2022-09-03T14:52:16.000Z,294.84
2022-09-03T14:53:42.000Z,294.84
2022-09-03T14:55:49.000Z,294.84
2022-09-03T14:57:15.000Z,294.9
2022-09-03T14:59:21.000Z,294.9
2022-09-03T15:00:48.000Z,294.96
2022-09-03T15:02:54.000Z,294.9
2022-09-03T15:04:21.000Z,294.84
2022-09-03T15:06:27.000Z,294.84
2022-09-03T15:09:20.000Z,294.84
2022-09-03T15:10:47.000Z,294.84
2022-09-03T15:13:00.000Z,294.77
2022-09-03T15:14:26.000Z,294.77
2022-09-03T15:16:32.000Z,294.77
2022-09-03T15:17:59.000Z,294.71
2022-09-03T15:20:05.000Z,294.71
2022-09-03T15:21:31.000Z,294.71
2022-09-03T15:23:38.000Z,294.71
2022-09-03T15:25:04.000Z,294.71
2022-09-03T15:27:10.000Z,294.59
2022-09-03T15:28:37.000Z,294.65
2022-09-03T15:30:43.000Z,294.59
2022-09-03T15:32:09.000Z,294.59
2022-09-03T15:34:18.000Z,294.52
2022-09-03T15:35:44.000Z,294.52
2022-09-03T15:37:51.000Z,294.52
2022-09-03T15:39:17.000Z,294.52
2022-09-03T15:41:23.000Z,294.52
2022-09-03T15:42:50.000Z,294.46
2022-09-03T15:44:56.000Z,294.46
2022-09-03T15:47:47.000Z,294.46
2022-09-03T15:49:16.000Z,294.46
2022-09-03T15:51:22.000Z,294.46
2022-09-03T15:52:49.000Z,294.46
2022-09-03T15:54:55.000Z,294.46
2022-09-03T15:56:21.000Z,294.46
2022-09-03T15:58:28.000Z,294.4
2022-09-03T15:59:54.000Z,294.46
2022-09-03T16:02:00.000Z,294.46
2022-09-03T16:03:27.000Z,294.46
2022-09-03T16:05:34.000Z,294.4
2022-09-03T16:07:00.000Z,294.4
2022-09-03T16:09:06.000Z,294.34
2022-09-03T16:10:33.000Z,294.34
2022-09-03T16:12:39.000Z,294.27
2022-09-03T16:14:05.000Z,294.21
2022-09-03T16:16:11.000Z,294.27
2022-09-03T16:17:38.000Z,294.27
2022-09-03T16:19:44.000Z,294.21
2022-09-03T16:21:11.000Z,294.21
2022-09-03T16:23:17.000Z,294.15
2022-09-03T16:26:08.000Z,294.15
2022-09-03T16:27:35.000Z,294.15
2022-09-03T16:29:41.000Z,294.15
2022-09-03T16:31:07.000Z,294.15
2022-09-03T16:33:14.000Z,294.09
2022-09-03T16:34:40.000Z,294.09
2022-09-03T16:36:46.000Z,294.02
2022-09-03T16:38:13.000Z,294.02
2022-09-03T16:40:19.000Z,294.02
2022-09-03T16:41:51.000Z,294.02
2022-09-03T16:43:57.000Z,294.02
2022-09-03T16:45:23.000Z,294.02
2022-09-03T16:47:30.000Z,294.02
2022-09-03T16:48:56.000Z,293.96
2022-09-03T16:51:02.000Z,293.96
2022-09-03T16:52:29.000Z,293.96
2022-09-03T16:54:43.000Z,293.9
2022-09-03T16:56:21.000Z,293.9
2022-09-03T16:58:30.000Z,293.84
2022-09-03T16:59:56.000Z,293.77
2022-09-03T17:02:03.000Z,293.84
2022-09-03T17:05:26.000Z,293.84
2022-09-03T17:06:52.000Z,293.77
2022-09-03T17:08:59.000Z,293.77
2022-09-03T17:10:25.000Z,293.77
2022-09-03T17:12:31.000Z,293.77
2022-09-03T17:13:58.000Z,293.71
2022-09-03T17:16:04.000Z,293.59
2022-09-03T17:17:31.000Z,293.59
2022-09-03T17:19:38.000Z,293.59
2022-09-03T17:21:05.000Z,293.59
2022-09-03T17:23:11.000Z,293.59
2022-09-03T17:24:37.000Z,293.59
2022-09-03T17:26:43.000Z,293.52
2022-09-03T17:28:10.000Z,293.52
2022-09-03T17:30:16.000Z,293.46
2022-09-03T17:31:43.000Z,293.46
2022-09-03T17:33:49.000Z,293.46
2022-09-03T17:35:15.000Z,293.4
2022-09-03T17:37:22.000Z,293.34
2022-09-03T17:38:48.000Z,293.34
2022-09-03T17:40:54.000Z,293.27
2022-09-03T17:43:45.000Z,293.21
2022-09-03T17:45:12.000Z,293.21
2022-09-03T17:47:18.000Z,293.15
2022-09-03T17:48:44.000Z,293.09
2022-09-03T17:50:51.000Z,293.09
2022-09-03T17:52:17.000Z,293.02
2022-09-03T17:54:23.000Z,292.9
2022-09-03T17:55:50.000Z,292.9
2022-09-03T17:57:56.000Z,292.9
2022-09-03T17:59:23.000Z,292.77
2022-09-03T18:01:29.000Z,292.77
2022-09-03T18:02:55.000Z,292.71
2022-09-03T18:05:02.000Z,292.59
2022-09-03T18:06:28.000Z,292.52
2022-09-03T18:08:34.000Z,292.46
2022-09-03T18:10:01.000Z,292.34
2022-09-03T18:12:07.000Z,292.4
2022-09-03T18:13:33.000Z,292.46
2022-09-03T18:15:40.000Z,292.4
2022-09-03T18:17:06.000Z,292.4
2022-09-03T18:19:12.000Z,292.34
2022-09-03T18:22:04.000Z,292.21
2022-09-03T18:23:30.000Z,292.21
2022-09-03T18:25:36.000Z,292.15
2022-09-03T18:27:03.000Z,292.15
2022-09-03T18:29:09.000Z,292.02
2022-09-03T18:30:35.000Z,292.02
2022-09-03T18:32:41.000Z,292.02
2022-09-03T18:34:08.000Z,292.02
2022-09-03T18:36:14.000Z,291.96
2022-09-03T18:37:40.000Z,291.96
2022-09-03T18:39:47.000Z,291.96
2022-09-03T18:41:14.000Z,291.9
2022-09-03T18:43:21.000Z,291.9
2022-09-03T18:44:48.000Z,291.84
2022-09-03T18:47:16.000Z,291.77
2022-09-03T18:49:27.000Z,291.52
2022-09-03T18:51:34.000Z,291.4
2022-09-03T18:53:01.000Z,291.27
2022-09-03T18:55:08.000Z,291.09
2022-09-03T18:56:34.000Z,291.02
2022-09-03T18:58:40.000Z,291.02
2022-09-03T19:01:31.000Z,290.9
2022-09-03T19:02:58.000Z,290.71
2022-09-03T19:05:05.000Z,290.59
2022-09-03T19:06:31.000Z,290.59
2022-09-03T19:08:39.000Z,290.65
2022-09-03T19:10:05.000Z,290.71
2022-09-03T19:12:11.000Z,290.4
2022-09-03T19:13:38.000Z,290.34
2022-09-03T19:15:44.000Z,290.21
2022-09-03T19:17:10.000Z,290.15
2022-09-03T19:19:17.000Z,290.09
2022-09-03T19:20:43.000Z,290.21
2022-09-03T19:22:49.000Z,290.09
2022-09-03T19:24:16.000Z,289.84
2022-09-03T19:26:25.000Z,289.77
2022-09-03T19:27:51.000Z,289.71
2022-09-03T19:30:03.000Z,289.71
2022-09-03T19:31:30.000Z,289.65
2022-09-03T19:33:36.000Z,289.52
2022-09-03T19:35:03.000Z,289.46
2022-09-03T19:37:09.000Z,289.27
2022-09-03T19:40:00.000Z,289.09
2022-09-03T19:41:27.000Z,289.02
2022-09-03T19:43:33.000Z,288.96
2022-09-03T19:45:01.000Z,288.96
2022-09-03T19:47:07.000Z,288.9
2022-09-03T19:48:34.000Z,288.84
2022-09-03T19:50:40.000Z,288.71
2022-09-03T19:52:07.000Z,288.71
2022-09-03T19:54:13.000Z,288.59
2022-09-03T19:55:39.000Z,288.59
2022-09-03T19:57:45.000Z,288.65
2022-09-03T19:59:12.000Z,288.59
2022-09-03T20:01:18.000Z,288.59
2022-09-03T20:02:44.000Z,288.46
2022-09-03T20:04:51.000Z,288.34
2022-09-03T20:06:17.000Z,288.34
2022-09-03T20:08:23.000Z,288.21
2022-09-03T20:09:50.000Z,288.15
2022-09-03T20:11:56.000Z,288.09
2022-09-03T20:13:23.000Z,288.09
2022-09-03T20:15:29.000Z,287.9
2022-09-03T20:18:20.000Z,287.84
2022-09-03T20:19:47.000Z,287.84
2022-09-03T20:21:53.000Z,287.9
2022-09-03T20:23:20.000Z,287.96
2022-09-03T20:25:26.000Z,287.96
2022-09-03T20:26:53.000Z,287.84
2022-09-03T20:28:59.000Z,287.84
2022-09-03T20:30:25.000Z,287.77
2022-09-03T20:32:31.000Z,287.65
2022-09-03T20:33:58.000Z,287.71
2022-09-03T20:36:04.000Z,287.46
2022-09-03T20:37:31.000Z,287.4
2022-09-03T20:39:37.000Z,287.27
2022-09-03T20:41:03.000Z,287.27
2022-09-03T20:43:09.000Z,287.27
2022-09-03T20:44:36.000Z,287.27
2022-09-03T20:46:42.000Z,287.21
2022-09-03T20:48:09.000Z,287.21
2022-09-03T20:50:15.000Z,287.09
2022-09-03T20:51:41.000Z,287.15
2022-09-03T20:53:47.000Z,287.02
2022-09-03T20:56:38.000Z,286.96
2022-09-03T20:58:05.000Z,286.96
2022-09-03T21:00:11.000Z,287.09
2022-09-03T21:01:37.000Z,287.02
2022-09-03T21:03:45.000Z,286.84
2022-09-03T21:05:11.000Z,286.77
2022-09-03T21:07:17.000Z,286.65
2022-09-03T21:08:44.000Z,286.65
2022-09-03T21:10:50.000Z,286.52
2022-09-03T21:12:16.000Z,286.52
2022-09-03T21:14:23.000Z,286.52
2022-09-03T21:15:49.000Z,286.52
2022-09-03T21:18:00.000Z,286.46
2022-09-03T21:19:27.000Z,286.52
2022-09-03T21:21:33.000Z,286.46
2022-09-03T21:23:01.000Z,286.46
2022-09-03T21:25:07.000Z,286.46
2022-09-03T21:26:33.000Z,286.46
2022-09-03T21:28:39.000Z,286.4
2022-09-03T21:30:06.000Z,286.4
2022-09-03T21:32:12.000Z,286.34
2022-09-03T21:35:03.000Z,286.4
2022-09-03T21:36:30.000Z,286.46
2022-09-03T21:38:37.000Z,286.34
2022-09-03T21:40:03.000Z,286.34
2022-09-03T21:42:12.000Z,286.4
2022-09-03T21:43:38.000Z,286.4
2022-09-03T21:45:44.000Z,286.4
2022-09-03T21:47:11.000Z,286.34
2022-09-03T21:49:17.000Z,286.4
2022-09-03T21:50:44.000Z,286.46
2022-09-03T21:52:50.000Z,286.46
2022-09-03T21:54:16.000Z,286.52
2022-09-03T21:56:22.000Z,286.59
2022-09-03T21:57:49.000Z,286.59
2022-09-03T21:59:55.000Z,286.52
2022-09-03T22:01:21.000Z,286.52
2022-09-03T22:03:28.000Z,286.52
2022-09-03T22:04:54.000Z,286.52
2022-09-03T22:07:00.000Z,286.52
2022-09-03T22:08:27.000Z,286.52
2022-09-03T22:10:33.000Z,286.52
2022-09-03T22:13:24.000Z,286.52
2022-09-03T22:14:51.000Z,286.52
2022-09-03T22:16:57.000Z,286.52
2022-09-03T22:18:23.000Z,286.52
2022-09-03T22:20:33.000Z,286.52
2022-09-03T22:21:59.000Z,286.59
2022-09-03T22:24:06.000Z,286.52
2022-09-03T22:25:32.000Z,286.46
2022-09-03T22:27:38.000Z,286.4
2022-09-03T22:29:05.000Z,286.4
2022-09-03T22:31:11.000Z,286.46
2022-09-03T22:32:37.000Z,286.46
2022-09-03T22:34:43.000Z,286.52
2022-09-03T22:36:10.000Z,286.46
2022-09-03T22:38:17.000Z,286.46
2022-09-03T22:39:43.000Z,286.46
2022-09-03T22:41:49.000Z,286.46
2022-09-03T22:43:16.000Z,286.46
2022-09-03T22:45:22.000Z,286.46
2022-09-03T22:46:49.000Z,286.46
2022-09-03T22:48:55.000Z,286.59
2022-09-03T22:51:46.000Z,286.77
2022-09-03T22:53:12.000Z,286.84
2022-09-03T22:55:19.000Z,286.77
2022-09-03T22:56:45.000Z,286.84
2022-09-03T22:58:51.000Z,286.84